Track Карпиков Александр

Time Latitude Longitude Accuracy (66% radius in meters) Altitude (meters) Speed (km/hour) Bearing (degrees) Battery (%) GPS flag
09:06:52 53.027167 36.149407 3.2160000801086 238.80853271484 0 0 52 1 delete
09:06:45 53.027147 36.149441 4.2880001068115 239.35986328125 0 0 52 1 delete
09:06:34 53.027141 36.149442 4.2880001068115 238.24597167969 0.47999998927116 326 52 1 delete
09:06:23 53.027131 36.149443 4.2880001068115 237.72528076172 0 0 52 1 delete
09:06:13 53.027107 36.149380 4.2880001068115 238.61437988281 0.46999999880791 21.299999237061 52 1 delete
09:06:09 53.027076 36.149385 4.2880001068115 242.83679199219 1.1000000238419 20.299999237061 52 1 delete
09:06:02 53.026989 36.149365 4.2880001068115 240.98278808594 0.81000000238419 31.10000038147 59 1 delete
09:06:01 53.026980 36.149365 4.2880001068115 241.27111816406 0.75 30.89999961853 59 1 delete
09:05:51 53.026892 36.149331 3.2160000801086 237.77526855469 0.68999999761581 351.10000610352 59 1 delete
09:05:40 53.026887 36.149330 3.2160000801086 239.35974121094 0 0 59 1 delete
09:05:30 53.026889 36.149335 4.2880001068115 239.74487304688 0 0 59 1 delete
09:05:28 53.026879 36.149351 4.2880001068115 239.40051269531 0.46999999880791 351.29998779297 59 1 delete
09:05:21 53.026804 36.149395 6.4320001602173 241.65124511719 1.2799999713898 343.10000610352 59 1 delete
09:05:17 53.026761 36.149404 6.4320001602173 241.41943359375 0.75999999046326 357.79998779297 59 1 delete
09:05:13 53.026712 36.149421 5.3600001335144 244.01403808594 0.77999997138977 332.29998779297 59 1 delete
09:05:09 53.026633 36.149498 4.2880001068115 244.72674560547 2.8199999332428 325.70001220703 59 1 delete
09:05:07 53.026586 36.149563 4.2880001068115 245.81115722656 2.8399999141693 312 59 1 delete
09:05:05 53.026551 36.149631 5.3600001335144 246.03881835938 2.3099999427795 312.79998779297 59 1 delete
09:05:02 53.026490 36.149751 4.2880001068115 249.21014404297 2.6400001049042 309 59 1 delete
09:04:58 53.026418 36.149889 5.3600001335144 245.7978515625 2.5299999713898 324.20001220703 59 1 delete
09:04:56 53.026379 36.149956 5.3600001335144 245.62353515625 2.5799999237061 304.10000610352 59 1 delete
09:04:53 53.026351 36.150040 5.3600001335144 247.376953125 2.8599998950958 311.5 59 1 delete
09:04:49 53.026277 36.150184 5.3600001335144 245.49444580078 2.9100000858307 306.39999389648 59 1 delete
09:04:45 53.026245 36.150354 4.2880001068115 249.83666992188 1.8099999427795 298.60000610352 59 1 delete
09:04:37 53.026264 36.150518 4.2880001068115 250.45697021484 1.710000038147 197.60000610352 59 1 delete
09:04:35 53.026299 36.150547 4.2880001068115 246.55969238281 2.5599999427795 190.89999389648 59 1 delete
09:04:32 53.026359 36.150593 4.2880001068115 244.31890869141 2.4800000190735 183.39999389648 59 1 delete
09:04:26 53.026422 36.150716 6.4320001602173 242.95446777344 1.0199999809265 213.39999389648 59 1 delete
09:04:25 53.026435 36.150751 6.4320001602173 241.90460205078 3.1199998855591 224.89999389648 59 1 delete
09:04:22 53.026455 36.150887 5.3600001335144 240.80126953125 2.2699999809265 245.69999694824 59 1 delete
09:04:18 53.026503 36.151021 5.3600001335144 241.77996826172 1.1499999761581 218 59 1 delete
09:04:14 53.026574 36.151137 5.3600001335144 240.64398193359 1.8700000047684 200 59 1 delete
09:04:09 53.026641 36.151248 4.2880001068115 243.57891845703 2.2000000476837 235.89999389648 59 1 delete
09:04:03 53.026650 36.151364 4.2880001068115 242.48449707031 0.76999998092651 247.89999389648 59 1 delete
09:04:00 53.026665 36.151427 5.3600001335144 242.56390380859 1.1200000047684 246.19999694824 59 1 delete
09:03:53 53.026691 36.151552 5.3600001335144 240.18322753906 0 0 59 1 delete
09:03:51 53.026702 36.151574 6.4320001602173 236.11694335938 0.41999998688698 218.10000610352 59 1 delete
09:03:42 53.026729 36.151689 4.2880001068115 241.10913085938 0.31999999284744 218.5 59 1 delete
09:03:40 53.026736 36.151712 4.2880001068115 241.38311767578 0.31999999284744 218.5 59 1 delete
09:03:34 53.026808 36.151805 6.4320001602173 232.57354736328 0.20000000298023 219.10000610352 59 1 delete
09:03:30 53.026840 36.151883 6.4320001602173 243.55633544922 1.1499999761581 228 59 1 delete
09:03:28 53.026861 36.151933 5.3600001335144 244.88653564453 1.3600000143051 215.5 59 1 delete
09:03:23 53.026942 36.152031 5.3600001335144 241.41748046875 0.89999997615814 193.30000305176 59 1 delete
09:03:19 53.027029 36.152081 6.4320001602173 244.05462646484 0.97000002861023 218.39999389648 59 1 delete
09:03:14 53.027094 36.152190 6.4320001602173 237.00866699219 1.4500000476837 212.60000610352 59 1 delete
09:03:08 53.027122 36.152250 5.3600001335144 244.07446289062 0 0 59 1 delete
09:03:06 53.027156 36.152310 5.3600001335144 243.87670898438 0.6700000166893 221.60000610352 59 1 delete
09:02:58 53.027210 36.152423 5.3600001335144 247.19445800781 0.58999997377396 211.69999694824 59 1 delete
09:02:56 53.027220 36.152450 4.2880001068115 245.55432128906 0.28000000119209 211.69999694824 59 1 delete
09:02:47 53.027291 36.152524 4.2880001068115 243.00201416016 0 0 59 1 delete